sensor_id;sensor_type;location;lat;lon;timestamp;P1;durP1;ratioP1;P2;durP2;ratioP2
3101;SDS011;1561;42.666;23.392;2022-09-13T00:00:05;5.70;;;5.20;;
3101;SDS011;1561;42.666;23.392;2022-09-13T00:02:35;6.40;;;5.17;;
3101;SDS011;1561;42.666;23.392;2022-09-13T00:05:02;6.43;;;5.83;;
3101;SDS011;1561;42.666;23.392;2022-09-13T00:07:28;5.93;;;5.43;;
3101;SDS011;1561;42.666;23.392;2022-09-13T00:09:55;6.57;;;5.97;;
3101;SDS011;1561;42.666;23.392;2022-09-13T00:12:22;10.20;;;5.80;;
3101;SDS011;1561;42.666;23.392;2022-09-13T00:14:49;6.00;;;5.40;;
3101;SDS011;1561;42.666;23.392;2022-09-13T00:17:16;6.83;;;6.23;;
3101;SDS011;1561;42.666;23.392;2022-09-13T00:19:45;5.97;;;5.47;;
3101;SDS011;1561;42.666;23.392;2022-09-13T00:22:12;7.00;;;6.30;;
3101;SDS011;1561;42.666;23.392;2022-09-13T00:24:43;5.80;;;5.30;;
3101;SDS011;1561;42.666;23.392;2022-09-13T00:27:13;6.57;;;5.97;;
3101;SDS011;1561;42.666;23.392;2022-09-13T00:29:44;7.63;;;6.97;;
3101;SDS011;1561;42.666;23.392;2022-09-13T00:32:13;6.20;;;5.67;;
3101;SDS011;1561;42.666;23.392;2022-09-13T00:34:40;6.20;;;5.60;;
3101;SDS011;1561;42.666;23.392;2022-09-13T00:37:10;6.00;;;5.50;;
3101;SDS011;1561;42.666;23.392;2022-09-13T00:39:37;6.40;;;5.80;;
3101;SDS011;1561;42.666;23.392;2022-09-13T00:42:08;6.90;;;5.80;;
3101;SDS011;1561;42.666;23.392;2022-09-13T00:47:28;7.03;;;6.43;;
3101;SDS011;1561;42.666;23.392;2022-09-13T00:50:04;7.17;;;6.57;;
3101;SDS011;1561;42.666;23.392;2022-09-13T00:52:43;10.63;;;7.10;;
3101;SDS011;1561;42.666;23.392;2022-09-13T00:55:15;8.30;;;7.60;;
3101;SDS011;1561;42.666;23.392;2022-09-13T00:57:56;9.53;;;6.60;;
3101;SDS011;1561;42.666;23.392;2022-09-13T01:00:27;7.73;;;7.00;;
3101;SDS011;1561;42.666;23.392;2022-09-13T01:02:56;7.00;;;6.43;;
3101;SDS011;1561;42.666;23.392;2022-09-13T01:05:26;7.97;;;7.27;;
3101;SDS011;1561;42.666;23.392;2022-09-13T01:08:01;7.80;;;7.00;;
3101;SDS011;1561;42.666;23.392;2022-09-13T01:10:34;6.77;;;6.07;;
3101;SDS011;1561;42.666;23.392;2022-09-13T01:13:04;7.30;;;6.50;;
3101;SDS011;1561;42.666;23.392;2022-09-13T01:15:38;6.67;;;5.93;;
3101;SDS011;1561;42.666;23.392;2022-09-13T01:18:06;6.27;;;5.67;;
3101;SDS011;1561;42.666;23.392;2022-09-13T01:20:43;6.23;;;5.60;;
3101;SDS011;1561;42.666;23.392;2022-09-13T01:23:41;8.67;;;5.83;;
3101;SDS011;1561;42.666;23.392;2022-09-13T01:32:27;9.50;;;5.70;;
3101;SDS011;1561;42.666;23.392;2022-09-13T01:35:09;11.57;;;5.63;;
3101;SDS011;1561;42.666;23.392;2022-09-13T01:37:45;6.53;;;5.80;;
3101;SDS011;1561;42.666;23.392;2022-09-13T01:40:23;7.23;;;5.67;;
3101;SDS011;1561;42.666;23.392;2022-09-13T01:45:55;7.10;;;5.40;;
3101;SDS011;1561;42.666;23.392;2022-09-13T01:48:35;5.83;;;5.33;;
3101;SDS011;1561;42.666;23.392;2022-09-13T01:51:20;8.10;;;7.40;;
3101;SDS011;1561;42.666;23.392;2022-09-13T01:53:56;9.43;;;8.00;;
3101;SDS011;1561;42.666;23.392;2022-09-13T01:56:32;9.37;;;8.57;;
3101;SDS011;1561;42.666;23.392;2022-09-13T01:59:07;11.50;;;9.30;;
3101;SDS011;1561;42.666;23.392;2022-09-13T02:01:41;9.52;;;8.60;;
3101;SDS011;1561;42.666;23.392;2022-09-13T02:04:14;7.47;;;6.63;;
3101;SDS011;1561;42.666;23.392;2022-09-13T02:06:47;8.87;;;5.93;;
3101;SDS011;1561;42.666;23.392;2022-09-13T02:09:23;6.50;;;5.80;;
3101;SDS011;1561;42.666;23.392;2022-09-13T02:11:55;6.53;;;5.93;;
3101;SDS011;1561;42.666;23.392;2022-09-13T02:14:33;6.50;;;5.90;;
3101;SDS011;1561;42.666;23.392;2022-09-13T02:17:03;6.50;;;5.90;;
3101;SDS011;1561;42.666;23.392;2022-09-13T02:19:39;6.60;;;6.00;;
3101;SDS011;1561;42.666;23.392;2022-09-13T02:22:10;7.00;;;6.10;;
3101;SDS011;1561;42.666;23.392;2022-09-13T02:24:43;6.27;;;5.67;;
3101;SDS011;1561;42.666;23.392;2022-09-13T02:27:15;7.67;;;5.73;;
3101;SDS011;1561;42.666;23.392;2022-09-13T02:29:49;6.73;;;6.10;;
3101;SDS011;1561;42.666;23.392;2022-09-13T02:32:20;10.67;;;5.77;;
3101;SDS011;1561;42.666;23.392;2022-09-13T02:34:53;6.63;;;6.03;;
3101;SDS011;1561;42.666;23.392;2022-09-13T02:37:23;7.27;;;6.43;;
3101;SDS011;1561;42.666;23.392;2022-09-13T02:39:54;7.50;;;6.47;;
3101;SDS011;1561;42.666;23.392;2022-09-13T02:42:25;7.10;;;5.97;;
3101;SDS011;1561;42.666;23.392;2022-09-13T02:45:00;5.80;;;5.30;;
3101;SDS011;1561;42.666;23.392;2022-09-13T02:47:40;6.90;;;5.60;;
3101;SDS011;1561;42.666;23.392;2022-09-13T02:50:20;6.93;;;6.30;;
3101;SDS011;1561;42.666;23.392;2022-09-13T02:53:00;6.77;;;6.17;;
3101;SDS011;1561;42.666;23.392;2022-09-13T02:55:33;7.13;;;5.67;;
3101;SDS011;1561;42.666;23.392;2022-09-13T02:58:08;7.07;;;6.33;;
3101;SDS011;1561;42.666;23.392;2022-09-13T03:00:40;8.30;;;5.60;;
3101;SDS011;1561;42.666;23.392;2022-09-13T03:03:08;7.53;;;6.33;;
3101;SDS011;1561;42.666;23.392;2022-09-13T03:05:40;7.80;;;7.10;;
3101;SDS011;1561;42.666;23.392;2022-09-13T03:08:07;8.90;;;6.07;;
3101;SDS011;1561;42.666;23.392;2022-09-13T03:10:42;6.53;;;5.93;;
3101;SDS011;1561;42.666;23.392;2022-09-13T03:13:22;6.83;;;6.13;;
3101;SDS011;1561;42.666;23.392;2022-09-13T03:16:15;6.50;;;5.90;;
3101;SDS011;1561;42.666;23.392;2022-09-13T03:18:54;7.63;;;6.27;;
3101;SDS011;1561;42.666;23.392;2022-09-13T03:21:38;6.07;;;5.47;;
3101;SDS011;1561;42.666;23.392;2022-09-13T03:24:21;6.53;;;5.83;;
3101;SDS011;1561;42.666;23.392;2022-09-13T03:27:10;7.63;;;5.73;;
3101;SDS011;1561;42.666;23.392;2022-09-13T03:29:50;7.23;;;6.23;;
3101;SDS011;1561;42.666;23.392;2022-09-13T03:32:28;9.03;;;6.70;;
3101;SDS011;1561;42.666;23.392;2022-09-13T03:35:03;6.73;;;6.10;;
3101;SDS011;1561;42.666;23.392;2022-09-13T03:37:41;7.93;;;6.20;;
3101;SDS011;1561;42.666;23.392;2022-09-13T03:40:20;6.53;;;5.90;;
3101;SDS011;1561;42.666;23.392;2022-09-13T03:42:55;8.37;;;6.03;;
3101;SDS011;1561;42.666;23.392;2022-09-13T03:45:26;6.80;;;5.87;;
3101;SDS011;1561;42.666;23.392;2022-09-13T03:48:08;7.73;;;5.77;;
3101;SDS011;1561;42.666;23.392;2022-09-13T03:50:37;7.10;;;6.40;;
3101;SDS011;1561;42.666;23.392;2022-09-13T03:53:09;12.13;;;6.67;;
3101;SDS011;1561;42.666;23.392;2022-09-13T03:55:40;7.80;;;7.00;;
3101;SDS011;1561;42.666;23.392;2022-09-13T03:58:17;6.50;;;5.90;;
3101;SDS011;1561;42.666;23.392;2022-09-13T04:00:46;6.60;;;6.00;;
3101;SDS011;1561;42.666;23.392;2022-09-13T04:03:28;7.17;;;6.50;;
3101;SDS011;1561;42.666;23.392;2022-09-13T04:05:56;6.47;;;5.90;;
3101;SDS011;1561;42.666;23.392;2022-09-13T04:08:24;6.77;;;6.07;;
3101;SDS011;1561;42.666;23.392;2022-09-13T04:10:53;9.20;;;6.73;;
3101;SDS011;1561;42.666;23.392;2022-09-13T04:13:20;8.83;;;6.17;;
3101;SDS011;1561;42.666;23.392;2022-09-13T04:15:47;7.30;;;6.60;;
3101;SDS011;1561;42.666;23.392;2022-09-13T04:18:17;7.97;;;7.23;;
3101;SDS011;1561;42.666;23.392;2022-09-13T04:20:52;6.13;;;5.53;;
3101;SDS011;1561;42.666;23.392;2022-09-13T04:23:20;6.20;;;5.70;;
3101;SDS011;1561;42.666;23.392;2022-09-13T04:25:48;6.70;;;6.10;;
3101;SDS011;1561;42.666;23.392;2022-09-13T04:28:17;7.63;;;6.20;;
3101;SDS011;1561;42.666;23.392;2022-09-13T04:30:45;8.70;;;6.17;;
3101;SDS011;1561;42.666;23.392;2022-09-13T04:33:12;6.87;;;6.27;;
3101;SDS011;1561;42.666;23.392;2022-09-13T04:35:42;7.90;;;5.93;;
3101;SDS011;1561;42.666;23.392;2022-09-13T04:38:09;6.13;;;5.53;;
3101;SDS011;1561;42.666;23.392;2022-09-13T04:40:38;7.53;;;6.13;;
3101;SDS011;1561;42.666;23.392;2022-09-13T04:43:08;6.07;;;5.57;;
3101;SDS011;1561;42.666;23.392;2022-09-13T04:45:38;6.97;;;5.73;;
3101;SDS011;1561;42.666;23.392;2022-09-13T04:48:07;6.10;;;5.50;;
3101;SDS011;1561;42.666;23.392;2022-09-13T04:50:34;6.57;;;6.00;;
3101;SDS011;1561;42.666;23.392;2022-09-13T04:53:01;6.40;;;5.73;;
3101;SDS011;1561;42.666;23.392;2022-09-13T04:55:30;7.57;;;5.50;;
3101;SDS011;1561;42.666;23.392;2022-09-13T04:58:02;6.70;;;5.80;;
3101;SDS011;1561;42.666;23.392;2022-09-13T05:00:37;6.78;;;6.10;;
3101;SDS011;1561;42.666;23.392;2022-09-13T05:03:21;6.60;;;5.30;;
3101;SDS011;1561;42.666;23.392;2022-09-13T05:05:52;6.72;;;5.43;;
3101;SDS011;1561;42.666;23.392;2022-09-13T05:08:20;9.00;;;6.05;;
3101;SDS011;1561;42.666;23.392;2022-09-13T05:10:50;6.35;;;4.68;;
3101;SDS011;1561;42.666;23.392;2022-09-13T05:13:24;6.78;;;5.50;;
3101;SDS011;1561;42.666;23.392;2022-09-13T05:16:06;6.63;;;5.50;;
3101;SDS011;1561;42.666;23.392;2022-09-13T05:18:35;6.55;;;5.28;;
3101;SDS011;1561;42.666;23.392;2022-09-13T05:21:05;6.50;;;4.90;;
3101;SDS011;1561;42.666;23.392;2022-09-13T05:23:36;5.13;;;4.63;;
3101;SDS011;1561;42.666;23.392;2022-09-13T05:26:04;5.57;;;4.95;;
3101;SDS011;1561;42.666;23.392;2022-09-13T05:28:33;5.35;;;4.95;;
3101;SDS011;1561;42.666;23.392;2022-09-13T05:31:09;5.75;;;5.05;;
3101;SDS011;1561;42.666;23.392;2022-09-13T05:33:51;8.95;;;5.70;;
3101;SDS011;1561;42.666;23.392;2022-09-13T05:36:20;5.70;;;5.25;;
3101;SDS011;1561;42.666;23.392;2022-09-13T05:38:54;4.95;;;4.55;;
3101;SDS011;1561;42.666;23.392;2022-09-13T05:41:29;5.40;;;5.00;;
3101;SDS011;1561;42.666;23.392;2022-09-13T05:43:59;6.78;;;4.95;;
3101;SDS011;1561;42.666;23.392;2022-09-13T05:46:37;5.15;;;4.75;;
3101;SDS011;1561;42.666;23.392;2022-09-13T05:49:04;5.35;;;4.60;;
3101;SDS011;1561;42.666;23.392;2022-09-13T05:51:32;11.00;;;4.78;;
3101;SDS011;1561;42.666;23.392;2022-09-13T05:54:03;5.07;;;4.50;;
3101;SDS011;1561;42.666;23.392;2022-09-13T05:56:30;9.80;;;4.20;;
3101;SDS011;1561;42.666;23.392;2022-09-13T05:59:01;4.47;;;4.18;;
3101;SDS011;1561;42.666;23.392;2022-09-13T06:01:30;12.70;;;8.07;;
3101;SDS011;1561;42.666;23.392;2022-09-13T06:04:04;5.95;;;5.22;;
3101;SDS011;1561;42.666;23.392;2022-09-13T06:06:32;5.97;;;5.45;;
3101;SDS011;1561;42.666;23.392;2022-09-13T06:09:05;6.03;;;5.53;;
3101;SDS011;1561;42.666;23.392;2022-09-13T06:11:46;6.03;;;5.10;;
3101;SDS011;1561;42.666;23.392;2022-09-13T06:14:18;6.00;;;4.57;;
3101;SDS011;1561;42.666;23.392;2022-09-13T06:16:45;5.47;;;4.97;;
3101;SDS011;1561;42.666;23.392;2022-09-13T06:19:15;4.53;;;4.18;;
3101;SDS011;1561;42.666;23.392;2022-09-13T06:21:44;12.98;;;8.05;;
3101;SDS011;1561;42.666;23.392;2022-09-13T06:24:14;16.45;;;10.98;;
3101;SDS011;1561;42.666;23.392;2022-09-13T06:26:43;15.73;;;9.35;;
3101;SDS011;1561;42.666;23.392;2022-09-13T06:29:12;5.20;;;4.70;;
3101;SDS011;1561;42.666;23.392;2022-09-13T06:31:39;6.50;;;5.30;;
3101;SDS011;1561;42.666;23.392;2022-09-13T06:34:13;4.40;;;4.10;;
3101;SDS011;1561;42.666;23.392;2022-09-13T06:36:42;12.55;;;7.63;;
3101;SDS011;1561;42.666;23.392;2022-09-13T06:39:11;5.22;;;4.72;;
3101;SDS011;1561;42.666;23.392;2022-09-13T06:41:40;6.95;;;4.93;;
3101;SDS011;1561;42.666;23.392;2022-09-13T06:44:07;6.03;;;4.80;;
3101;SDS011;1561;42.666;23.392;2022-09-13T06:46:39;7.35;;;4.53;;
3101;SDS011;1561;42.666;23.392;2022-09-13T06:49:09;4.55;;;4.25;;
3101;SDS011;1561;42.666;23.392;2022-09-13T06:51:44;6.72;;;4.95;;
3101;SDS011;1561;42.666;23.392;2022-09-13T06:54:11;4.40;;;4.00;;
3101;SDS011;1561;42.666;23.392;2022-09-13T06:56:39;10.02;;;4.15;;
3101;SDS011;1561;42.666;23.392;2022-09-13T06:59:07;4.85;;;4.38;;
3101;SDS011;1561;42.666;23.392;2022-09-13T07:01:39;5.75;;;4.10;;
3101;SDS011;1561;42.666;23.392;2022-09-13T07:04:08;7.75;;;4.30;;
3101;SDS011;1561;42.666;23.392;2022-09-13T07:06:42;4.68;;;4.25;;
3101;SDS011;1561;42.666;23.392;2022-09-13T07:09:12;5.28;;;4.78;;
3101;SDS011;1561;42.666;23.392;2022-09-13T07:11:42;5.07;;;4.68;;
3101;SDS011;1561;42.666;23.392;2022-09-13T07:14:12;4.57;;;4.25;;
3101;SDS011;1561;42.666;23.392;2022-09-13T07:16:42;5.22;;;4.18;;
3101;SDS011;1561;42.666;23.392;2022-09-13T07:19:14;6.25;;;5.70;;
3101;SDS011;1561;42.666;23.392;2022-09-13T07:21:45;4.97;;;4.20;;
3101;SDS011;1561;42.666;23.392;2022-09-13T07:24:15;4.25;;;3.95;;
3101;SDS011;1561;42.666;23.392;2022-09-13T07:26:44;9.70;;;6.22;;
3101;SDS011;1561;42.666;23.392;2022-09-13T07:29:19;10.40;;;6.88;;
3101;SDS011;1561;42.666;23.392;2022-09-13T07:31:51;4.63;;;3.90;;
3101;SDS011;1561;42.666;23.392;2022-09-13T07:34:23;7.65;;;4.57;;
3101;SDS011;1561;42.666;23.392;2022-09-13T07:36:55;4.68;;;4.28;;
3101;SDS011;1561;42.666;23.392;2022-09-13T07:39:26;5.93;;;3.85;;
3101;SDS011;1561;42.666;23.392;2022-09-13T07:41:53;4.13;;;3.80;;
3101;SDS011;1561;42.666;23.392;2022-09-13T07:44:21;4.38;;;3.97;;
3101;SDS011;1561;42.666;23.392;2022-09-13T07:46:56;5.63;;;4.53;;
3101;SDS011;1561;42.666;23.392;2022-09-13T07:49:25;5.72;;;3.80;;
3101;SDS011;1561;42.666;23.392;2022-09-13T07:52:04;3.90;;;3.53;;
3101;SDS011;1561;42.666;23.392;2022-09-13T07:54:35;5.43;;;4.15;;
3101;SDS011;1561;42.666;23.392;2022-09-13T07:57:02;4.35;;;4.00;;
3101;SDS011;1561;42.666;23.392;2022-09-13T07:59:29;4.88;;;3.78;;
3101;SDS011;1561;42.666;23.392;2022-09-13T08:01:58;6.53;;;3.30;;
3101;SDS011;1561;42.666;23.392;2022-09-13T08:04:26;4.22;;;3.58;;
3101;SDS011;1561;42.666;23.392;2022-09-13T08:06:55;3.67;;;3.35;;
3101;SDS011;1561;42.666;23.392;2022-09-13T08:09:27;3.95;;;3.55;;
3101;SDS011;1561;42.666;23.392;2022-09-13T08:11:55;4.22;;;3.80;;
3101;SDS011;1561;42.666;23.392;2022-09-13T08:14:26;3.60;;;3.30;;
3101;SDS011;1561;42.666;23.392;2022-09-13T08:16:55;6.38;;;4.93;;
3101;SDS011;1561;42.666;23.392;2022-09-13T08:19:22;3.90;;;3.53;;
3101;SDS011;1561;42.666;23.392;2022-09-13T08:21:51;4.85;;;4.45;;
3101;SDS011;1561;42.666;23.392;2022-09-13T08:24:20;3.85;;;3.55;;
3101;SDS011;1561;42.666;23.392;2022-09-13T08:26:52;5.82;;;3.63;;
3101;SDS011;1561;42.666;23.392;2022-09-13T08:29:26;3.35;;;3.15;;
3101;SDS011;1561;42.666;23.392;2022-09-13T08:31:53;3.67;;;3.40;;
3101;SDS011;1561;42.666;23.392;2022-09-13T08:34:21;5.45;;;4.70;;
3101;SDS011;1561;42.666;23.392;2022-09-13T08:36:51;4.57;;;3.63;;
3101;SDS011;1561;42.666;23.392;2022-09-13T08:39:18;4.07;;;3.78;;
3101;SDS011;1561;42.666;23.392;2022-09-13T08:41:54;4.13;;;3.78;;
3101;SDS011;1561;42.666;23.392;2022-09-13T08:44:44;4.18;;;3.63;;
3101;SDS011;1561;42.666;23.392;2022-09-13T08:47:18;4.10;;;3.70;;
3101;SDS011;1561;42.666;23.392;2022-09-13T08:50:11;3.53;;;3.30;;
3101;SDS011;1561;42.666;23.392;2022-09-13T08:52:46;4.45;;;3.60;;
3101;SDS011;1561;42.666;23.392;2022-09-13T08:55:24;3.92;;;3.40;;
3101;SDS011;1561;42.666;23.392;2022-09-13T08:58:16;5.30;;;4.80;;
3101;SDS011;1561;42.666;23.392;2022-09-13T09:01:02;4.07;;;3.67;;
3101;SDS011;1561;42.666;23.392;2022-09-13T09:03:35;4.13;;;3.70;;
3101;SDS011;1561;42.666;23.392;2022-09-13T09:06:11;8.95;;;6.57;;
3101;SDS011;1561;42.666;23.392;2022-09-13T09:08:48;3.38;;;3.08;;
3101;SDS011;1561;42.666;23.392;2022-09-13T09:11:21;3.63;;;3.33;;
3101;SDS011;1561;42.666;23.392;2022-09-13T09:14:01;3.28;;;3.08;;
3101;SDS011;1561;42.666;23.392;2022-09-13T09:16:36;5.43;;;3.80;;
3101;SDS011;1561;42.666;23.392;2022-09-13T09:19:11;6.00;;;3.40;;
3101;SDS011;1561;42.666;23.392;2022-09-13T09:21:47;4.60;;;4.30;;
3101;SDS011;1561;42.666;23.392;2022-09-13T09:24:36;4.25;;;3.65;;
3101;SDS011;1561;42.666;23.392;2022-09-13T09:27:18;3.10;;;2.90;;
3101;SDS011;1561;42.666;23.392;2022-09-13T09:29:53;3.13;;;2.92;;
3101;SDS011;1561;42.666;23.392;2022-09-13T09:32:45;3.80;;;3.55;;
3101;SDS011;1561;42.666;23.392;2022-09-13T09:35:33;2.88;;;2.67;;
3101;SDS011;1561;42.666;23.392;2022-09-13T09:38:22;2.42;;;2.33;;
3101;SDS011;1561;42.666;23.392;2022-09-13T09:41:05;2.95;;;2.75;;
3101;SDS011;1561;42.666;23.392;2022-09-13T09:43:41;2.60;;;2.50;;
3101;SDS011;1561;42.666;23.392;2022-09-13T09:46:25;5.50;;;5.05;;
3101;SDS011;1561;42.666;23.392;2022-09-13T09:49:00;3.00;;;2.80;;
3101;SDS011;1561;42.666;23.392;2022-09-13T09:52:00;4.15;;;3.00;;
3101;SDS011;1561;42.666;23.392;2022-09-13T09:54:32;2.83;;;2.63;;
3101;SDS011;1561;42.666;23.392;2022-09-13T09:57:03;5.82;;;3.28;;
3101;SDS011;1561;42.666;23.392;2022-09-13T09:59:35;4.07;;;3.78;;
3101;SDS011;1561;42.666;23.392;2022-09-13T10:04:55;3.33;;;3.10;;
3101;SDS011;1561;42.666;23.392;2022-09-13T10:07:32;3.65;;;3.45;;
3101;SDS011;1561;42.666;23.392;2022-09-13T10:10:19;11.75;;;9.27;;
3101;SDS011;1561;42.666;23.392;2022-09-13T10:12:56;4.07;;;3.78;;
3101;SDS011;1561;42.666;23.392;2022-09-13T10:15:27;6.05;;;3.67;;
3101;SDS011;1561;42.666;23.392;2022-09-13T10:18:13;14.35;;;7.00;;
3101;SDS011;1561;42.666;23.392;2022-09-13T10:20:58;4.25;;;3.85;;
3101;SDS011;1561;42.666;23.392;2022-09-13T10:23:27;4.75;;;4.35;;
3101;SDS011;1561;42.666;23.392;2022-09-13T10:25:59;6.85;;;4.07;;
3101;SDS011;1561;42.666;23.392;2022-09-13T10:28:33;7.45;;;4.50;;
3101;SDS011;1561;42.666;23.392;2022-09-13T10:31:07;3.47;;;3.17;;
3101;SDS011;1561;42.666;23.392;2022-09-13T10:33:46;5.00;;;3.75;;
3101;SDS011;1561;42.666;23.392;2022-09-13T10:36:27;3.85;;;3.65;;
3101;SDS011;1561;42.666;23.392;2022-09-13T10:38:57;5.60;;;5.10;;
3101;SDS011;1561;42.666;23.392;2022-09-13T10:41:26;7.70;;;4.10;;
3101;SDS011;1561;42.666;23.392;2022-09-13T10:43:58;5.82;;;3.83;;
3101;SDS011;1561;42.666;23.392;2022-09-13T10:46:35;5.28;;;3.55;;
3101;SDS011;1561;42.666;23.392;2022-09-13T10:49:21;3.47;;;3.17;;
3101;SDS011;1561;42.666;23.392;2022-09-13T10:52:01;3.78;;;3.47;;
3101;SDS011;1561;42.666;23.392;2022-09-13T10:54:53;4.47;;;3.95;;
3101;SDS011;1561;42.666;23.392;2022-09-13T10:57:30;3.65;;;3.42;;
3101;SDS011;1561;42.666;23.392;2022-09-13T10:59:59;4.20;;;3.25;;
3101;SDS011;1561;42.666;23.392;2022-09-13T11:02:40;3.08;;;2.80;;
3101;SDS011;1561;42.666;23.392;2022-09-13T11:05:27;3.65;;;3.45;;
3101;SDS011;1561;42.666;23.392;2022-09-13T11:08:20;3.97;;;3.53;;
3101;SDS011;1561;42.666;23.392;2022-09-13T11:11:05;3.58;;;3.38;;
3101;SDS011;1561;42.666;23.392;2022-09-13T11:13:51;3.22;;;3.03;;
3101;SDS011;1561;42.666;23.392;2022-09-13T11:16:33;3.55;;;3.25;;
3101;SDS011;1561;42.666;23.392;2022-09-13T11:19:21;4.47;;;3.83;;
3101;SDS011;1561;42.666;23.392;2022-09-13T11:25:38;4.10;;;3.28;;
3101;SDS011;1561;42.666;23.392;2022-09-13T11:28:27;3.53;;;3.33;;
3101;SDS011;1561;42.666;23.392;2022-09-13T11:31:09;3.25;;;3.05;;
3101;SDS011;1561;42.666;23.392;2022-09-13T11:33:59;3.28;;;3.17;;
3101;SDS011;1561;42.666;23.392;2022-09-13T11:36:47;3.75;;;3.55;;
3101;SDS011;1561;42.666;23.392;2022-09-13T11:39:40;3.17;;;2.97;;
3101;SDS011;1561;42.666;23.392;2022-09-13T11:42:21;4.38;;;3.60;;
3101;SDS011;1561;42.666;23.392;2022-09-13T11:45:18;3.88;;;3.58;;
3101;SDS011;1561;42.666;23.392;2022-09-13T11:48:11;3.55;;;3.25;;
3101;SDS011;1561;42.666;23.392;2022-09-13T11:51:03;3.50;;;3.20;;
3101;SDS011;1561;42.666;23.392;2022-09-13T11:53:47;3.17;;;2.92;;
3101;SDS011;1561;42.666;23.392;2022-09-13T11:56:34;5.18;;;3.47;;
3101;SDS011;1561;42.666;23.392;2022-09-13T11:59:15;8.63;;;6.45;;
3101;SDS011;1561;42.666;23.392;2022-09-13T12:02:04;4.40;;;4.05;;
3101;SDS011;1561;42.666;23.392;2022-09-13T12:04:44;4.32;;;3.90;;
3101;SDS011;1561;42.666;23.392;2022-09-13T12:07:21;4.18;;;3.30;;
3101;SDS011;1561;42.666;23.392;2022-09-13T12:09:56;4.10;;;3.80;;
3101;SDS011;1561;42.666;23.392;2022-09-13T12:12:32;7.20;;;3.40;;
3101;SDS011;1561;42.666;23.392;2022-09-13T12:15:06;3.13;;;2.92;;
3101;SDS011;1561;42.666;23.392;2022-09-13T12:18:00;3.25;;;3.03;;
3101;SDS011;1561;42.666;23.392;2022-09-13T12:20:31;3.83;;;3.60;;
3101;SDS011;1561;42.666;23.392;2022-09-13T12:23:04;2.70;;;2.60;;
3101;SDS011;1561;42.666;23.392;2022-09-13T12:25:45;3.63;;;3.40;;
3101;SDS011;1561;42.666;23.392;2022-09-13T12:28:22;3.28;;;3.03;;
3101;SDS011;1561;42.666;23.392;2022-09-13T12:30:54;3.08;;;2.88;;
3101;SDS011;1561;42.666;23.392;2022-09-13T12:33:25;3.40;;;3.10;;
3101;SDS011;1561;42.666;23.392;2022-09-13T12:36:04;14.15;;;9.30;;
3101;SDS011;1561;42.666;23.392;2022-09-13T12:38:58;8.18;;;5.53;;
3101;SDS011;1561;42.666;23.392;2022-09-13T12:41:51;7.53;;;3.25;;
3101;SDS011;1561;42.666;23.392;2022-09-13T12:44:45;4.30;;;3.55;;
3101;SDS011;1561;42.666;23.392;2022-09-13T12:47:51;8.48;;;4.90;;
3101;SDS011;1561;42.666;23.392;2022-09-13T12:50:38;5.57;;;4.75;;
3101;SDS011;1561;42.666;23.392;2022-09-13T12:53:31;7.85;;;3.72;;
3101;SDS011;1561;42.666;23.392;2022-09-13T12:56:36;14.00;;;9.95;;
3101;SDS011;1561;42.666;23.392;2022-09-13T13:02:38;2.88;;;2.67;;
3101;SDS011;1561;42.666;23.392;2022-09-13T13:05:34;4.00;;;3.67;;
3101;SDS011;1561;42.666;23.392;2022-09-13T13:08:50;7.03;;;5.63;;
3101;SDS011;1561;42.666;23.392;2022-09-13T13:11:21;4.30;;;4.00;;
3101;SDS011;1561;42.666;23.392;2022-09-13T13:13:58;3.20;;;2.83;;
3101;SDS011;1561;42.666;23.392;2022-09-13T13:16:42;3.28;;;2.97;;
3101;SDS011;1561;42.666;23.392;2022-09-13T13:19:28;2.80;;;2.60;;
3101;SDS011;1561;42.666;23.392;2022-09-13T13:24:59;3.22;;;2.92;;
3101;SDS011;1561;42.666;23.392;2022-09-13T13:34:01;3.70;;;3.20;;
3101;SDS011;1561;42.666;23.392;2022-09-13T13:45:54;4.50;;;2.97;;
3101;SDS011;1561;42.666;23.392;2022-09-13T13:48:33;4.07;;;3.55;;
3101;SDS011;1561;42.666;23.392;2022-09-13T13:51:19;3.15;;;2.95;;
3101;SDS011;1561;42.666;23.392;2022-09-13T13:53:57;3.80;;;2.78;;
3101;SDS011;1561;42.666;23.392;2022-09-13T13:57:10;6.57;;;3.63;;
3101;SDS011;1561;42.666;23.392;2022-09-13T14:00:03;4.15;;;3.05;;
3101;SDS011;1561;42.666;23.392;2022-09-13T14:02:42;4.38;;;3.30;;
3101;SDS011;1561;42.666;23.392;2022-09-13T14:05:23;4.40;;;4.00;;
3101;SDS011;1561;42.666;23.392;2022-09-13T14:08:07;3.47;;;3.28;;
3101;SDS011;1561;42.666;23.392;2022-09-13T14:11:01;3.90;;;3.60;;
3101;SDS011;1561;42.666;23.392;2022-09-13T14:13:43;3.53;;;3.22;;
3101;SDS011;1561;42.666;23.392;2022-09-13T14:16:37;5.00;;;4.22;;
3101;SDS011;1561;42.666;23.392;2022-09-13T14:19:26;4.43;;;3.63;;
3101;SDS011;1561;42.666;23.392;2022-09-13T14:24:50;3.83;;;3.63;;
3101;SDS011;1561;42.666;23.392;2022-09-13T14:27:21;3.92;;;3.63;;
3101;SDS011;1561;42.666;23.392;2022-09-13T14:30:00;3.45;;;3.25;;
3101;SDS011;1561;42.666;23.392;2022-09-13T14:32:31;3.47;;;3.28;;
3101;SDS011;1561;42.666;23.392;2022-09-13T14:35:20;4.50;;;3.22;;
3101;SDS011;1561;42.666;23.392;2022-09-13T14:37:53;4.65;;;4.10;;
3101;SDS011;1561;42.666;23.392;2022-09-13T14:40:25;4.18;;;3.80;;
3101;SDS011;1561;42.666;23.392;2022-09-13T14:43:13;4.82;;;4.40;;
3101;SDS011;1561;42.666;23.392;2022-09-13T14:46:01;4.15;;;3.85;;
3101;SDS011;1561;42.666;23.392;2022-09-13T14:48:46;5.82;;;5.40;;
3101;SDS011;1561;42.666;23.392;2022-09-13T14:51:18;4.28;;;3.90;;
3101;SDS011;1561;42.666;23.392;2022-09-13T14:53:49;4.32;;;3.63;;
3101;SDS011;1561;42.666;23.392;2022-09-13T14:59:24;6.53;;;5.88;;
3101;SDS011;1561;42.666;23.392;2022-09-13T15:02:06;4.15;;;3.85;;
3101;SDS011;1561;42.666;23.392;2022-09-13T15:04:49;5.22;;;4.82;;
3101;SDS011;1561;42.666;23.392;2022-09-13T15:07:27;10.27;;;5.25;;
3101;SDS011;1561;42.666;23.392;2022-09-13T15:10:04;5.38;;;4.60;;
3101;SDS011;1561;42.666;23.392;2022-09-13T15:12:35;3.67;;;3.47;;
3101;SDS011;1561;42.666;23.392;2022-09-13T15:18:00;4.63;;;4.22;;
3101;SDS011;1561;42.666;23.392;2022-09-13T15:20:42;4.00;;;3.70;;
3101;SDS011;1561;42.666;23.392;2022-09-13T15:23:13;4.15;;;3.75;;
3101;SDS011;1561;42.666;23.392;2022-09-13T15:25:46;4.22;;;3.92;;
3101;SDS011;1561;42.666;23.392;2022-09-13T15:28:19;3.90;;;3.70;;
3101;SDS011;1561;42.666;23.392;2022-09-13T15:30:48;4.60;;;4.30;;
3101;SDS011;1561;42.666;23.392;2022-09-13T15:33:23;4.32;;;4.10;;
3101;SDS011;1561;42.666;23.392;2022-09-13T15:38:54;4.65;;;4.35;;
3101;SDS011;1561;42.666;23.392;2022-09-13T15:41:27;4.28;;;3.97;;
3101;SDS011;1561;42.666;23.392;2022-09-13T15:44:02;7.03;;;4.05;;
3101;SDS011;1561;42.666;23.392;2022-09-13T15:46:33;4.13;;;3.90;;
3101;SDS011;1561;42.666;23.392;2022-09-13T15:49:11;5.00;;;4.60;;
3101;SDS011;1561;42.666;23.392;2022-09-13T15:51:42;4.22;;;3.92;;
3101;SDS011;1561;42.666;23.392;2022-09-13T15:54:13;4.10;;;3.80;;
3101;SDS011;1561;42.666;23.392;2022-09-13T15:56:43;4.60;;;4.30;;
3101;SDS011;1561;42.666;23.392;2022-09-13T15:59:12;4.50;;;4.20;;
3101;SDS011;1561;42.666;23.392;2022-09-13T16:01:41;4.60;;;4.20;;
3101;SDS011;1561;42.666;23.392;2022-09-13T16:04:11;4.18;;;3.88;;
3101;SDS011;1561;42.666;23.392;2022-09-13T16:06:43;5.25;;;4.75;;
3101;SDS011;1561;42.666;23.392;2022-09-13T16:09:15;6.10;;;4.72;;
3101;SDS011;1561;42.666;23.392;2022-09-13T16:11:43;6.03;;;5.45;;
3101;SDS011;1561;42.666;23.392;2022-09-13T16:14:13;4.38;;;4.07;;
3101;SDS011;1561;42.666;23.392;2022-09-13T16:16:41;5.15;;;4.75;;
3101;SDS011;1561;42.666;23.392;2022-09-13T16:19:11;5.72;;;5.28;;
3101;SDS011;1561;42.666;23.392;2022-09-13T16:21:43;5.03;;;4.53;;
3101;SDS011;1561;42.666;23.392;2022-09-13T16:24:18;5.45;;;5.05;;
3101;SDS011;1561;42.666;23.392;2022-09-13T16:26:45;7.25;;;6.60;;
3101;SDS011;1561;42.666;23.392;2022-09-13T16:29:16;6.43;;;4.75;;
3101;SDS011;1561;42.666;23.392;2022-09-13T16:31:49;6.45;;;5.85;;
3101;SDS011;1561;42.666;23.392;2022-09-13T16:34:23;6.20;;;5.70;;
3101;SDS011;1561;42.666;23.392;2022-09-13T16:36:52;6.03;;;5.57;;
3101;SDS011;1561;42.666;23.392;2022-09-13T16:39:20;5.50;;;5.10;;
3101;SDS011;1561;42.666;23.392;2022-09-13T16:41:55;6.35;;;5.85;;